Time;durP1;ratioP1;P1;durP2;ratioP2;P2;SDS_P1;SDS_P2;PMS_P1;PMS_P2;Temp;Humidity;BMP_temperature;BMP_pressure;BME280_temperature;BME280_humidity;BME280_pressure;Samples;Min_cycle;Max_cycle;Signal;HPM_P1;HPM_P2
2021/06/03 00:01:16;;;;;;;49.80;35.47;;;;;;;19.26;100.00;101533.73;1846264;78;24153;-71
2021/06/03 00:03:47;;;;;;;46.43;33.37;;;;;;;19.32;100.00;101529.62;1846315;78;26700;-74
2021/06/03 00:06:17;;;;;;;46.10;33.77;;;;;;;19.36;100.00;101526.39;1846394;78;24223;-71
2021/06/03 00:08:47;;;;;;;45.57;33.93;;;;;;;19.42;100.00;101527.08;1846234;77;24306;-72
2021/06/03 00:11:17;;;;;;;45.50;33.00;;;;;;;19.32;100.00;101523.15;1846402;78;24152;-74
2021/06/03 00:13:49;;;;;;;49.43;33.33;;;;;;;19.33;100.00;101526.23;1846446;78;24153;-74
2021/06/03 00:16:20;;;;;;;45.20;31.40;;;;;;;19.39;100.00;101531.36;1846514;78;26661;-71
2021/06/03 00:18:49;;;;;;;46.07;32.17;;;;;;;19.34;100.00;101525.88;1846287;78;24601;-74
2021/06/03 00:21:19;;;;;;;43.33;32.00;;;;;;;19.32;100.00;101523.98;1846409;78;24227;-75
2021/06/03 00:23:49;;;;;;;45.07;32.40;;;;;;;19.41;100.00;101531.88;1846372;78;24215;-74
2021/06/03 00:26:19;;;;;;;42.70;31.93;;;;;;;19.48;100.00;101530.00;1846384;78;24612;-71
2021/06/03 00:28:49;;;;;;;42.23;30.73;;;;;;;19.42;100.00;101528.48;1846291;78;24164;-74
2021/06/03 00:31:19;;;;;;;40.97;31.10;;;;;;;19.40;100.00;101529.38;1846326;78;24146;-71
2021/06/03 00:33:49;;;;;;;41.00;30.10;;;;;;;19.36;100.00;101536.26;1846374;78;24165;-71
2021/06/03 00:36:19;;;;;;;41.53;31.13;;;;;;;19.35;100.00;101536.57;1846356;78;24156;-74
2021/06/03 00:38:49;;;;;;;40.37;29.83;;;;;;;19.36;100.00;101535.42;1846391;78;24164;-74
2021/06/03 00:41:19;;;;;;;43.77;30.47;;;;;;;19.34;100.00;101543.39;1846418;78;24149;-74
2021/06/03 00:43:49;;;;;;;42.13;30.73;;;;;;;19.24;100.00;101536.06;1846280;78;24157;-74
2021/06/03 00:46:19;;;;;;;42.60;31.90;;;;;;;19.31;100.00;101544.86;1846250;76;26678;-71
2021/06/03 00:48:49;;;;;;;43.77;31.77;;;;;;;19.34;100.00;101540.57;1846303;78;26702;-73
2021/06/03 00:51:19;;;;;;;39.57;30.77;;;;;;;19.41;100.00;101539.50;1846433;78;24665;-74
2021/06/03 00:53:49;;;;;;;44.10;30.07;;;;;;;19.45;100.00;101536.31;1846322;78;24620;-71
2021/06/03 00:56:19;;;;;;;41.27;30.23;;;;;;;19.38;100.00;101535.94;1846387;78;24149;-75
2021/06/03 00:58:49;;;;;;;41.40;29.20;;;;;;;19.40;100.00;101533.03;1846406;78;24148;-74
2021/06/03 01:01:19;;;;;;;37.10;28.77;;;;;;;19.33;100.00;101527.06;1846258;78;24149;-74
2021/06/03 01:03:49;;;;;;;39.13;29.73;;;;;;;19.35;100.00;101526.14;1846364;78;24152;-71
2021/06/03 01:06:19;;;;;;;36.90;28.03;;;;;;;19.28;100.00;101527.78;1846390;77;24242;-74
2021/06/03 01:08:52;;;;;;;36.23;27.20;;;;;;;19.28;100.00;101528.62;1846234;77;24180;-75
2021/06/03 01:11:25;;;;;;;35.97;27.90;;;;;;;19.26;100.00;101528.09;1846413;77;24605;-74
2021/06/03 01:13:58;;;;;;;40.50;28.60;;;;;;;19.31;100.00;101529.36;1846282;78;24165;-71
2021/06/03 01:16:30;;;;;;;37.07;27.90;;;;;;;19.23;100.00;101531.58;1846302;78;24204;-74
2021/06/03 01:19:03;;;;;;;34.93;27.30;;;;;;;19.25;100.00;101534.08;1846274;78;26757;-71
2021/06/03 01:21:38;;;;;;;34.57;27.27;;;;;;;19.25;100.00;101534.08;1846364;78;24216;-74
2021/06/03 01:24:40;;;;;;;36.67;28.53;;;;;;;19.30;100.00;101530.51;1846443;78;24682;-71
2021/06/03 01:27:13;;;;;;;34.13;27.50;;;;;;;19.30;100.00;101530.51;1798630;77;26608;-71
2021/06/03 01:29:47;;;;;;;34.07;26.47;;;;;;;19.24;100.00;101533.25;1846200;78;24239;-75
2021/06/03 01:32:18;;;;;;;35.27;28.13;;;;;;;19.25;100.00;101533.50;1846236;78;24151;-74
2021/06/03 01:34:49;;;;;;;36.50;26.07;;;;;;;19.26;100.00;101535.72;1846300;78;24149;-71
2021/06/03 01:37:20;;;;;;;34.57;25.43;;;;;;;19.24;100.00;101529.02;1846274;78;24160;-71
2021/06/03 01:39:51;;;;;;;33.10;26.27;;;;;;;19.22;100.00;101540.34;1846432;78;24169;-74
2021/06/03 01:42:21;;;;;;;38.00;28.20;;;;;;;19.18;100.00;101539.34;1846399;78;24312;-71
2021/06/03 01:44:52;;;;;;;35.13;28.00;;;;;;;19.21;100.00;101545.75;1846391;76;24133;-74
2021/06/03 01:47:22;;;;;;;35.33;27.70;;;;;;;19.27;100.00;101546.66;1846359;78;24154;-71
2021/06/03 01:49:52;;;;;;;36.80;26.87;;;;;;;19.19;100.00;101548.88;1846242;78;24153;-71
2021/06/03 01:52:23;;;;;;;34.73;26.20;;;;;;;19.19;100.00;101549.45;1846255;78;24568;-74
2021/06/03 01:54:54;;;;;;;31.67;25.57;;;;;;;19.15;100.00;101547.04;1846384;78;24148;-71
2021/06/03 01:57:25;;;;;;;35.07;27.30;;;;;;;19.15;100.00;101556.33;1846333;78;24134;-71
2021/06/03 01:59:55;;;;;;;33.37;25.53;;;;;;;19.12;100.00;101544.31;1846226;78;24155;-75
2021/06/03 02:02:24;;;;;;;32.47;26.37;;;;;;;19.12;100.00;101549.11;1846457;78;24142;-72
2021/06/03 02:04:54;;;;;;;32.43;25.80;;;;;;;19.08;100.00;101548.94;1846366;78;24230;-74
2021/06/03 02:07:24;;;;;;;31.03;25.60;;;;;;;18.98;100.00;101552.87;1846343;78;24621;-71
2021/06/03 02:09:54;;;;;;;34.23;27.03;;;;;;;19.04;100.00;101547.90;1846336;77;24648;-74
2021/06/03 02:12:25;;;;;;;36.23;26.57;;;;;;;19.05;100.00;101550.40;1846378;78;24224;-71
2021/06/03 02:14:57;;;;;;;33.93;26.77;;;;;;;19.04;100.00;101550.14;1846307;78;24602;-71
2021/06/03 02:17:30;;;;;;;31.07;25.83;;;;;;;19.13;100.00;101550.17;1846263;78;24165;-70
2021/06/03 02:20:03;;;;;;;38.07;26.83;;;;;;;19.07;100.00;101548.67;1846121;78;24142;-71
2021/06/03 02:22:34;;;;;;;30.30;24.93;;;;;;;19.04;100.00;101552.13;1846328;77;24227;-74
2021/06/03 02:25:06;;;;;;;32.47;26.00;;;;;;;19.08;100.00;101557.38;1846372;78;24161;-74
2021/06/03 02:27:37;;;;;;;30.70;24.33;;;;;;;19.09;100.00;101554.22;1846288;78;24278;-74
2021/06/03 02:30:09;;;;;;;31.70;24.47;;;;;;;19.01;100.00;101558.41;1846331;78;24196;-71
2021/06/03 02:32:39;;;;;;;31.40;25.57;;;;;;;19.09;100.00;101560.43;1846436;78;24238;-71
2021/06/03 02:35:11;;;;;;;30.73;25.80;;;;;;;19.00;100.00;101561.80;1846430;78;24673;-71
2021/06/03 02:37:43;;;;;;;31.03;24.60;;;;;;;19.02;100.00;101562.89;1846472;78;24234;-71
2021/06/03 02:40:16;;;;;;;30.37;24.40;;;;;;;19.03;100.00;101565.40;1846465;78;24161;-71
2021/06/03 02:42:48;;;;;;;30.10;25.07;;;;;;;19.00;100.00;101564.62;1846377;78;24623;-71
2021/06/03 02:45:21;;;;;;;33.97;25.13;;;;;;;19.04;100.00;101564.22;1846226;76;24250;-72
2021/06/03 02:47:51;;;;;;;32.13;25.17;;;;;;;18.90;100.00;101563.52;1846435;78;24285;-74
2021/06/03 02:50:23;;;;;;;35.53;25.50;;;;;;;18.96;100.00;101557.98;1846214;78;24270;-71
2021/06/03 02:52:54;;;;;;;33.87;25.10;;;;;;;18.96;100.00;101560.80;1846349;78;24153;-71
2021/06/03 02:55:26;;;;;;;29.47;24.80;;;;;;;18.94;100.00;101558.89;1846312;78;24152;-74
2021/06/03 02:57:56;;;;;;;31.27;24.70;;;;;;;18.93;100.00;101562.86;1788331;80;24423;-74
2021/06/03 03:00:28;;;;;;;29.57;25.00;;;;;;;18.90;100.00;101564.92;1846707;77;24179;-75
2021/06/03 03:02:58;;;;;;;31.83;26.17;;;;;;;18.90;100.00;101569.14;1846334;78;24235;-74
2021/06/03 03:05:28;;;;;;;29.70;24.53;;;;;;;18.84;100.00;101566.78;1846423;78;24213;-71
2021/06/03 03:07:58;;;;;;;31.63;25.57;;;;;;;18.82;100.00;101568.53;1846303;78;24122;-74
2021/06/03 03:10:31;;;;;;;33.77;25.63;;;;;;;18.83;100.00;101570.16;1846076;77;26703;-74
2021/06/03 03:13:01;;;;;;;34.87;26.90;;;;;;;18.78;100.00;101568.92;1846221;78;24157;-71
2021/06/03 03:15:31;;;;;;;36.77;26.30;;;;;;;18.78;100.00;101576.53;1846290;78;24613;-71
2021/06/03 03:18:17;;;;;;;34.40;26.83;;;;;;;18.73;100.00;101579.48;1820105;79;31460;-71
2021/06/03 03:20:48;;;;;;;33.57;25.77;;;;;;;18.73;100.00;101583.70;1820469;79;24193;-74
2021/06/03 03:23:18;;;;;;;36.57;26.53;;;;;;;18.67;100.00;101586.38;1820579;79;24296;-74
2021/06/03 03:25:48;;;;;;;36.43;26.17;;;;;;;18.64;100.00;101587.30;1820476;79;24185;-71
2021/06/03 03:28:18;;;;;;;36.73;27.57;;;;;;;18.68;100.00;101591.70;1820520;79;24169;-71
2021/06/03 03:30:48;;;;;;;36.73;27.23;;;;;;;18.70;100.00;101592.80;1820497;79;24659;-74
2021/06/03 03:33:18;;;;;;;36.07;27.60;;;;;;;18.63;100.00;101602.52;1820504;79;24706;-75
2021/06/03 03:35:49;;;;;;;34.90;26.80;;;;;;;18.66;100.00;101603.84;1820471;79;24164;-75
2021/06/03 03:38:21;;;;;;;36.10;28.27;;;;;;;18.67;100.00;101605.52;1820486;79;24184;-71
2021/06/03 03:40:51;;;;;;;32.87;26.70;;;;;;;18.69;100.00;101600.41;1820461;79;24656;-74
2021/06/03 03:43:21;;;;;;;34.97;27.53;;;;;;;18.72;100.00;101615.23;1820563;79;24173;-74
2021/06/03 03:45:51;;;;;;;36.50;27.93;;;;;;;18.69;100.00;101612.23;1820531;77;24268;-74
2021/06/03 03:48:21;;;;;;;34.13;25.73;;;;;;;18.68;100.00;101621.83;1820476;79;24176;-74
2021/06/03 03:50:51;;;;;;;34.17;27.40;;;;;;;18.71;100.00;101624.82;1846256;78;24161;-74
2021/06/03 03:53:21;;;;;;;35.77;26.83;;;;;;;18.64;100.00;101630.08;1846373;78;24157;-71
2021/06/03 03:55:51;;;;;;;37.27;27.57;;;;;;;18.67;100.00;101629.44;1846315;78;24149;-74
2021/06/03 03:58:21;;;;;;;36.33;28.27;;;;;;;18.67;100.00;101637.88;1846243;78;24240;-74
2021/06/03 04:00:51;;;;;;;34.63;26.97;;;;;;;18.62;100.00;101643.63;1835820;76;938870;-71
2021/06/03 04:03:20;;;;;;;34.40;26.23;;;;;;;18.59;100.00;101652.15;1846890;78;26643;-75
2021/06/03 04:05:50;;;;;;;37.63;27.03;;;;;;;18.57;100.00;101653.60;1846784;78;24137;-71
2021/06/03 04:08:20;;;;;;;33.07;27.33;;;;;;;18.57;100.00;101653.03;1846788;78;24646;-70
2021/06/03 04:10:50;;;;;;;35.93;28.03;;;;;;;18.54;100.00;101659.88;1846722;77;24147;-71
2021/06/03 04:13:20;;;;;;;35.83;26.77;;;;;;;18.58;100.00;101654.70;1846908;77;26289;-71
2021/06/03 04:15:49;;;;;;;35.43;27.23;;;;;;;18.55;100.00;101667.17;1846820;78;24137;-74
2021/06/03 04:18:19;;;;;;;40.30;28.03;;;;;;;18.59;100.00;101662.56;1846980;78;24204;-72
2021/06/03 04:20:49;;;;;;;36.53;26.33;;;;;;;18.56;100.00;101661.81;1846929;78;26626;-74
2021/06/03 04:23:19;;;;;;;34.73;27.60;;;;;;;18.56;100.00;101668.84;1847018;78;24207;-74
2021/06/03 04:25:49;;;;;;;36.33;28.47;;;;;;;18.51;100.00;101667.53;1847028;78;24145;-74
2021/06/03 04:28:19;;;;;;;32.37;25.30;;;;;;;18.50;100.00;101665.28;1846874;78;26360;-71
2021/06/03 04:30:50;;;;;;;40.47;25.90;;;;;;;18.50;100.00;101667.27;1846974;78;24218;-74
2021/06/03 04:33:22;;;;;;;35.50;25.73;;;;;;;18.50;100.00;101671.48;1846958;78;24199;-72
2021/06/03 04:35:52;;;;;;;36.60;27.77;;;;;;;18.50;100.00;101673.72;1846932;78;24137;-74
2021/06/03 04:38:22;;;;;;;37.03;27.37;;;;;;;18.49;100.00;101676.27;1846974;78;24196;-71
2021/06/03 04:40:52;;;;;;;33.10;26.67;;;;;;;18.47;100.00;101681.98;1846913;78;24219;-71
2021/06/03 04:43:23;;;;;;;38.30;27.30;;;;;;;18.56;100.00;101682.91;1846927;78;24137;-72
2021/06/03 04:45:52;;;;;;;34.07;25.80;;;;;;;18.48;100.00;101687.27;1846969;76;24157;-71
2021/06/03 04:48:22;;;;;;;38.03;25.77;;;;;;;18.41;100.00;101693.08;1846887;78;26605;-74
2021/06/03 04:50:52;;;;;;;35.57;27.73;;;;;;;18.46;100.00;101686.77;1846921;78;24195;-70
2021/06/03 04:53:22;;;;;;;32.57;24.77;;;;;;;18.45;100.00;101684.27;1846791;78;26634;-73
2021/06/03 04:55:52;;;;;;;34.90;26.13;;;;;;;18.42;100.00;101685.73;1846974;78;24234;-73
2021/06/03 04:58:22;;;;;;;35.23;26.73;;;;;;;18.53;100.00;101689.16;1846948;78;24190;-70
2021/06/03 05:00:52;;;;;;;35.83;26.10;;;;;;;18.38;100.00;101686.69;1846937;78;24124;-72
2021/06/03 05:03:22;;;;;;;35.87;26.33;;;;;;;18.36;100.00;101694.03;1847016;78;26205;-70
2021/06/03 05:05:52;;;;;;;34.80;26.43;;;;;;;18.28;100.00;101696.20;1846928;78;26644;-71
2021/06/03 05:08:22;;;;;;;34.87;25.93;;;;;;;18.20;100.00;101699.76;1846887;78;24137;-74
2021/06/03 05:10:51;;;;;;;38.17;27.00;;;;;;;18.28;100.00;101698.17;1846976;78;24227;-70
2021/06/03 05:13:21;;;;;;;36.03;25.50;;;;;;;18.27;100.00;101700.14;1846940;77;26759;-74
2021/06/03 05:15:51;;;;;;;39.40;27.27;;;;;;;18.13;100.00;101703.58;1846977;78;24140;-73
2021/06/03 05:18:21;;;;;;;36.50;28.23;;;;;;;18.13;100.00;101703.58;1846926;78;24137;-70
2021/06/03 05:20:51;;;;;;;38.20;27.90;;;;;;;18.14;100.00;101711.69;1846898;78;24207;-71
2021/06/03 05:23:22;;;;;;;36.97;27.90;;;;;;;18.24;100.00;101709.80;1846947;78;26355;-71
2021/06/03 05:25:52;;;;;;;42.17;28.90;;;;;;;18.29;100.00;101714.74;1847046;78;24145;-74
2021/06/03 05:28:22;;;;;;;38.10;27.67;;;;;;;18.44;100.00;101713.57;1846983;78;24137;-73
2021/06/03 05:30:52;;;;;;;38.60;28.03;;;;;;;18.42;100.00;101718.66;1846838;78;24549;-73
2021/06/03 05:33:21;;;;;;;36.40;26.53;;;;;;;18.31;100.00;101718.66;1847020;78;24137;-74
2021/06/03 05:35:51;;;;;;;36.57;26.57;;;;;;;18.40;100.00;101719.57;1846924;78;26196;-73
2021/06/03 05:38:21;;;;;;;39.10;26.83;;;;;;;18.36;100.00;101727.79;1847008;78;24203;-74
2021/06/03 05:40:51;;;;;;;36.37;26.90;;;;;;;18.46;100.00;101723.91;1847032;78;26683;-74
2021/06/03 05:43:21;;;;;;;33.10;25.97;;;;;;;18.43;100.00;101718.93;1846885;78;26663;-70
2021/06/03 05:45:51;;;;;;;32.43;24.47;;;;;;;18.44;100.00;101728.44;1846784;76;26231;-70
2021/06/03 05:48:20;;;;;;;34.17;24.13;;;;;;;18.52;100.00;101729.16;1846959;78;24133;-72
2021/06/03 05:50:50;;;;;;;34.93;24.13;;;;;;;18.58;100.00;101734.90;1846862;78;24198;-71
2021/06/03 05:53:20;;;;;;;32.80;24.90;;;;;;;18.65;100.00;101730.25;1846916;78;24133;-71
2021/06/03 05:55:50;;;;;;;32.90;24.57;;;;;;;18.64;100.00;101740.67;1846944;78;24142;-71
2021/06/03 05:58:20;;;;;;;32.77;24.50;;;;;;;18.57;100.00;101747.30;1846907;78;24130;-74
2021/06/03 06:00:50;;;;;;;34.67;24.43;;;;;;;18.52;100.00;101749.39;1846954;78;24553;-71
2021/06/03 06:03:22;;;;;;;30.20;23.57;;;;;;;18.57;100.00;101752.09;1846811;78;24579;-69
2021/06/03 06:06:10;;;;;;;29.67;23.67;;;;;;;18.57;100.00;101748.70;1847089;78;24211;-74
2021/06/03 06:08:36;;;;;;;33.77;23.20;;;;;;;18.64;100.00;101753.91;1846430;77;24129;-73
2021/06/03 06:11:06;;;;;;;30.73;22.53;;;;;;;18.67;100.00;101753.27;1846953;78;24208;-70
2021/06/03 06:13:37;;;;;;;30.57;23.77;;;;;;;18.77;100.00;101753.61;1853530;76;26749;-74
2021/06/03 06:16:07;;;;;;;29.63;21.73;;;;;;;18.80;100.00;101758.02;1858450;77;24136;-70
2021/06/03 06:18:37;;;;;;;26.87;21.07;;;;;;;18.71;100.00;101759.92;1852122;77;24592;-71
2021/06/03 06:21:08;;;;;;;28.17;21.73;;;;;;;18.61;100.00;101764.41;1846863;78;24132;-71
2021/06/03 06:23:40;;;;;;;27.07;20.67;;;;;;;18.52;100.00;101762.05;1846920;78;24631;-71
2021/06/03 06:26:11;;;;;;;27.67;20.33;;;;;;;18.43;100.00;101763.95;1847033;78;24208;-72
2021/06/03 06:28:41;;;;;;;30.93;21.50;;;;;;;18.45;100.00;101761.06;1846944;78;24141;-70
2021/06/03 06:31:11;;;;;;;25.80;19.60;;;;;;;18.54;100.00;101759.20;1846853;78;24141;-71
2021/06/03 06:33:41;;;;;;;26.63;19.43;;;;;;;18.60;100.00;101766.95;1846924;78;24148;-70
2021/06/03 06:36:13;;;;;;;24.07;19.33;;;;;;;18.72;100.00;101771.45;1847001;78;24149;-74
2021/06/03 06:38:43;;;;;;;26.77;19.63;;;;;;;18.63;100.00;101771.38;1846825;78;26615;-74
2021/06/03 06:41:13;;;;;;;26.27;20.40;;;;;;;18.61;100.00;101772.25;1846888;78;24215;-70
2021/06/03 06:43:43;;;;;;;24.77;19.07;;;;;;;18.60;100.00;101767.79;1846875;78;24144;-73
2021/06/03 06:46:13;;;;;;;26.73;19.80;;;;;;;18.52;100.00;101776.13;1846767;76;26708;-73
2021/06/03 06:48:43;;;;;;;25.90;20.37;;;;;;;18.56;100.00;101770.15;1847133;78;24202;-69
2021/06/03 06:51:12;;;;;;;27.73;19.00;;;;;;;18.51;100.00;101772.47;1846897;78;24137;-71
2021/06/03 06:53:42;;;;;;;26.47;19.73;;;;;;;18.59;100.00;101767.52;1846938;78;24189;-70
2021/06/03 06:56:13;;;;;;;27.83;19.37;;;;;;;18.65;100.00;101771.87;1846910;78;26648;-71
2021/06/03 06:58:43;;;;;;;26.60;19.43;;;;;;;18.84;100.00;101770.30;1846938;78;24216;-72
2021/06/03 07:01:12;;;;;;;26.57;19.50;;;;;;;18.82;100.00;101777.42;1846933;78;24194;-73
2021/06/03 07:03:42;;;;;;;25.27;18.27;;;;;;;18.91;100.00;101769.27;1846980;78;24573;-70
2021/06/03 07:06:12;;;;;;;23.90;18.20;;;;;;;18.93;100.00;101778.82;1846860;78;24137;-70
2021/06/03 07:08:42;;;;;;;22.80;18.40;;;;;;;18.95;100.00;101781.59;1846809;78;24152;-71
2021/06/03 07:11:12;;;;;;;26.87;18.83;;;;;;;18.77;100.00;101780.34;1846826;78;24580;-70
2021/06/03 07:13:42;;;;;;;27.07;18.30;;;;;;;18.95;100.00;101776.53;1846730;77;24712;-73
2021/06/03 07:16:12;;;;;;;24.07;18.17;;;;;;;19.00;100.00;101781.44;1846872;78;24137;-70
2021/06/03 07:18:42;;;;;;;20.57;17.10;;;;;;;18.97;100.00;101783.50;1846917;78;24207;-72
2021/06/03 07:21:12;;;;;;;22.47;18.40;;;;;;;19.08;100.00;101785.50;1846905;78;24137;-73
2021/06/03 07:23:42;;;;;;;24.30;17.83;;;;;;;19.09;100.00;101798.41;1846802;78;24639;-71
2021/06/03 07:26:12;;;;;;;23.90;18.07;;;;;;;19.16;100.00;101789.53;1846800;78;24149;-71
2021/06/03 07:28:41;;;;;;;23.87;17.97;;;;;;;19.14;100.00;101794.63;1846889;78;24133;-71
2021/06/03 07:31:11;;;;;;;27.20;19.47;;;;;;;19.08;100.00;101790.53;1846818;78;24148;-75
2021/06/03 07:33:41;;;;;;;24.40;18.10;;;;;;;19.09;100.00;101780.94;1847108;78;24161;-74
2021/06/03 07:36:11;;;;;;;22.83;18.23;;;;;;;19.22;100.00;101786.82;1846925;78;24250;-80
2021/06/03 07:38:41;;;;;;;25.77;18.27;;;;;;;19.35;100.00;101788.16;1846836;78;24592;-72
2021/06/03 07:41:11;;;;;;;25.23;19.00;;;;;;;19.38;100.00;101786.09;1846884;78;24149;-75
2021/06/03 07:43:41;;;;;;;27.03;18.13;;;;;;;19.49;100.00;101793.75;1846821;78;24215;-73
2021/06/03 07:46:12;;;;;;;23.53;17.80;;;;;;;19.71;100.00;101790.06;1846897;76;24231;-74
2021/06/03 07:48:42;;;;;;;23.67;17.07;;;;;;;19.96;100.00;101779.47;1846856;78;24145;-74
2021/06/03 07:51:13;;;;;;;23.77;17.53;;;;;;;20.28;100.00;101785.31;1846851;78;24207;-72
2021/06/03 07:53:44;;;;;;;24.03;17.47;;;;;;;20.23;100.00;101783.48;1846976;78;24153;-73
2021/06/03 07:56:15;;;;;;;23.20;17.63;;;;;;;20.23;100.00;101784.89;1847001;78;24141;-72
2021/06/03 07:58:45;;;;;;;22.10;16.90;;;;;;;20.23;100.00;101786.88;1846943;78;24571;-75
2021/06/03 08:01:15;;;;;;;26.53;18.33;;;;;;;20.09;100.00;101787.56;1847045;78;24191;-76
2021/06/03 08:03:45;;;;;;;21.23;16.60;;;;;;;20.19;100.00;101792.34;1847180;78;24250;-80
2021/06/03 08:06:15;;;;;;;19.93;15.80;;;;;;;20.05;100.00;101793.61;1847059;78;24133;-73
2021/06/03 08:08:45;;;;;;;23.90;16.20;;;;;;;19.73;100.00;101807.47;1846934;78;24137;-78
2021/06/03 08:11:15;;;;;;;24.17;17.73;;;;;;;19.72;100.00;101801.03;1847224;78;24133;-73
2021/06/03 08:13:44;;;;;;;21.63;15.63;;;;;;;19.57;100.00;101801.42;1846956;77;24141;-77
2021/06/03 08:16:20;;;;;;;21.67;15.10;;;;;;;19.97;100.00;101801.72;1857765;77;26315;-73
2021/06/03 08:18:52;;;;;;;22.90;16.23;;;;;;;20.17;100.00;101807.92;1820435;79;24226;-76
2021/06/03 08:21:21;;;;;;;22.13;17.20;;;;;;;20.28;100.00;101817.77;1852627;77;24183;-71
2021/06/03 08:23:52;;;;;;;21.37;16.17;;;;;;;20.05;100.00;101814.77;1852710;77;24560;-74
2021/06/03 08:26:24;;;;;;;22.53;16.87;;;;;;;19.88;100.00;101820.59;1852801;77;24133;-73
2021/06/03 08:28:56;;;;;;;23.53;17.97;;;;;;;19.79;100.00;101818.30;1852899;77;24634;-78
2021/06/03 08:31:27;;;;;;;22.77;17.33;;;;;;;19.88;100.00;101820.59;1852697;77;24218;-72
2021/06/03 08:34:01;;;;;;;24.03;18.67;;;;;;;19.92;100.00;101812.30;1852686;77;24137;-73
2021/06/03 08:36:29;;;;;;;24.40;18.93;;;;;;;19.82;100.00;101814.83;1852284;77;24253;-77
2021/06/03 08:38:59;;;;;;;25.67;18.40;;;;;;;19.88;100.00;101818.34;1852621;77;24204;-73
2021/06/03 08:41:31;;;;;;;23.57;17.60;;;;;;;20.03;100.00;101811.42;1852547;77;24140;-73
2021/06/03 08:44:03;;;;;;;25.20;18.90;;;;;;;20.28;100.00;101807.89;1852766;77;24110;-73
2021/06/03 08:46:33;;;;;;;24.43;18.07;;;;;;;20.29;100.00;101794.01;1852494;76;24252;-76
2021/06/03 08:49:05;;;;;;;25.77;19.63;;;;;;;20.56;100.00;101800.84;1852544;77;24141;-76
2021/06/03 08:51:36;;;;;;;22.10;17.30;;;;;;;20.65;100.00;101792.38;1852674;77;24133;-76
2021/06/03 08:54:06;;;;;;;24.80;17.97;;;;;;;21.06;100.00;101800.36;1852503;77;24126;-75
2021/06/03 08:56:36;;;;;;;20.47;16.33;;;;;;;21.03;100.00;101807.52;1852665;77;24144;-75
2021/06/03 08:59:06;;;;;;;23.27;17.80;;;;;;;21.07;100.00;101805.69;1852537;77;24172;-73
2021/06/03 09:01:36;;;;;;;21.80;16.33;;;;;;;20.95;100.00;101807.52;1852541;77;24140;-75
2021/06/03 09:04:06;;;;;;;22.67;15.83;;;;;;;21.05;100.00;101808.00;1852596;77;24153;-73
2021/06/03 09:06:36;;;;;;;23.60;17.77;;;;;;;21.37;100.00;101812.91;1852713;77;24179;-73
2021/06/03 09:09:11;;;;;;;21.10;16.07;;;;;;;21.17;100.00;101830.82;1852551;77;24129;-74
2021/06/03 09:11:38;;;;;;;25.70;16.33;;;;;;;21.02;100.00;101824.78;1852079;77;24129;-75
2021/06/03 09:14:12;;;;;;;19.57;16.07;;;;;;;20.65;100.00;101829.92;1852622;77;24620;-76
2021/06/03 09:16:40;;;;;;;22.27;16.57;;;;;;;20.78;100.00;101829.52;1843146;76;24185;-73
2021/06/03 09:19:13;;;;;;;20.93;17.17;;;;;;;20.93;100.00;101836.08;1841130;78;24133;-76
2021/06/03 09:21:50;;;;;;;23.23;17.17;;;;;;;21.07;100.00;101839.59;1841059;78;24627;-78
2021/06/03 09:24:22;;;;;;;19.73;15.60;;;;;;;21.01;100.00;101843.73;1841259;78;24133;-75
2021/06/03 09:26:55;;;;;;;20.57;15.90;;;;;;;20.87;100.00;101832.61;1841279;78;24145;-73
2021/06/03 09:29:27;;;;;;;21.33;17.23;;;;;;;20.84;100.00;101841.72;1841103;78;24137;-75
2021/06/03 09:32:03;;;;;;;22.53;15.93;;;;;;;20.75;100.00;101837.25;1841122;78;24207;-73
2021/06/03 09:34:34;;;;;;;23.47;15.57;;;;;;;20.93;100.00;101831.84;1841165;78;24222;-75
2021/06/03 09:37:07;;;;;;;17.87;14.87;;;;;;;21.34;100.00;101832.80;1847097;78;24148;-73
2021/06/03 09:39:38;;;;;;;16.50;14.10;;;;;;;21.08;100.00;101832.78;1847031;78;26280;-75
2021/06/03 09:42:11;;;;;;;17.23;13.93;;;;;;;20.77;100.00;101838.57;1847022;78;24613;-73
2021/06/03 09:44:43;;;;;;;15.67;13.90;;;;;;;20.94;100.00;101840.58;1847025;78;24176;-73
2021/06/03 09:47:15;;;;;;;18.27;13.73;;;;;;;21.13;100.00;101835.48;1846837;76;24181;-75
2021/06/03 09:49:46;;;;;;;15.27;13.07;;;;;;;21.21;100.00;101836.05;1847172;78;24579;-73
2021/06/03 09:52:20;;;;;;;16.43;13.87;;;;;;;21.25;100.00;101840.45;1846990;78;26630;-73
2021/06/03 09:54:53;;;;;;;14.57;12.50;;;;;;;21.47;100.00;101851.58;1846941;78;24153;-73
2021/06/03 09:57:28;;;;;;;15.43;12.93;;;;;;;21.54;100.00;101851.89;1847033;78;24141;-73
2021/06/03 10:00:01;;;;;;;15.27;12.67;;;;;;;21.45;100.00;101849.66;1847017;78;24125;-74
2021/06/03 10:02:33;;;;;;;15.10;12.00;;;;;;;21.38;100.00;101852.75;1846902;78;24237;-73
2021/06/03 10:05:12;;;;;;;16.00;13.53;;;;;;;21.16;100.00;101856.00;1847064;78;24700;-73
2021/06/03 10:07:47;;;;;;;16.13;11.87;;;;;;;21.26;100.00;101855.67;1846857;78;26695;-74
2021/06/03 10:10:17;;;;;;;13.27;11.30;;;;;;;21.28;100.00;101856.16;1840423;78;24608;-74
2021/06/03 10:12:49;;;;;;;14.30;11.63;;;;;;;21.42;100.00;101852.32;1841217;78;24142;-74
2021/06/03 10:15:48;;;;;;;15.00;11.20;;;;;;;21.44;100.00;101855.62;1841066;76;24616;-73
2021/06/03 10:18:20;;;;;;;14.83;11.57;;;;;;;21.33;100.00;101859.39;1846875;78;26771;-73
2021/06/03 10:20:53;;;;;;;14.43;11.37;;;;;;;21.11;100.00;101858.95;1841061;77;26639;-72
2021/06/03 10:23:28;;;;;;;16.93;11.93;;;;;;;21.37;100.00;101860.39;1840969;78;24624;-75
2021/06/03 10:26:01;;;;;;;13.03;11.63;;;;;;;21.22;100.00;101865.95;1841036;78;24137;-74
2021/06/03 10:28:32;;;;;;;14.13;11.90;;;;;;;21.38;100.00;101866.88;1841059;78;24141;-74
2021/06/03 10:31:07;;;;;;;12.57;11.23;;;;;;;21.42;100.00;101849.50;1840946;78;24588;-73
2021/06/03 10:33:37;;;;;;;13.77;11.30;;;;;;;21.46;100.00;101861.22;1841224;78;24658;-72
2021/06/03 10:36:10;;;;;;;15.93;12.20;;;;;;;21.51;100.00;101855.39;1840963;78;24671;-72
2021/06/03 10:38:41;;;;;;;15.30;12.17;;;;;;;21.38;100.00;101854.16;1840950;78;26707;-76
2021/06/03 10:41:14;;;;;;;14.60;11.93;;;;;;;21.33;100.00;101860.23;1841061;78;24137;-75
2021/06/03 10:43:46;;;;;;;12.70;11.33;;;;;;;21.27;100.00;101855.06;1841094;78;24579;-73
2021/06/03 10:46:14;;;;;;;16.30;13.53;;;;;;;;;;1841059;77;24134;-73
2021/06/03 10:48:44;;;;;;;15.07;12.27;;;;;;;21.31;100.00;101862.55;1841097;77;24192;-75
2021/06/03 10:51:15;;;;;;;16.47;13.13;;;;;;;21.27;100.00;101860.14;1841004;78;24180;-73
2021/06/03 10:53:46;;;;;;;15.93;13.17;;;;;;;21.35;100.00;101856.47;1841051;78;24206;-73
2021/06/03 10:56:19;;;;;;;18.40;13.67;;;;;;;21.45;100.00;101852.48;1841051;78;24615;-73
2021/06/03 10:58:50;;;;;;;16.53;13.83;;;;;;;21.66;100.00;101861.92;1841164;78;24591;-74
2021/06/03 11:01:21;;;;;;;17.17;14.47;;;;;;;21.30;100.00;101860.08;1841082;78;26363;-76
2021/06/03 11:03:56;;;;;;;17.80;13.80;;;;;;;21.52;100.00;101861.88;1840975;78;24153;-76
2021/06/03 11:06:27;;;;;;;16.73;14.00;;;;;;;21.75;100.00;101864.73;1841187;78;24206;-73
2021/06/03 11:09:06;;;;;;;14.60;13.10;;;;;;;21.64;100.00;101864.27;1841081;78;24138;-76
2021/06/03 11:11:38;;;;;;;14.37;12.97;;;;;;;21.50;100.00;101852.31;1840985;78;24232;-74
2021/06/03 11:14:11;;;;;;;15.87;13.27;;;;;;;21.82;100.00;101859.99;1841002;78;24141;-76
2021/06/03 11:16:55;;;;;;;16.77;13.23;;;;;;;21.80;100.00;101858.33;1843723;76;24258;-76
2021/06/03 11:19:26;;;;;;;15.37;12.73;;;;;;;21.84;100.00;101857.64;1852580;77;24278;-74